Time;durP1;ratioP1;P1;durP2;ratioP2;P2;SDS_P1;SDS_P2;PMS_P1;PMS_P2;Temp;Humidity;BMP_temperature;BMP_pressure;BME280_temperature;BME280_humidity;BME280_pressure;Samples;Min_cycle;Max_cycle;Signal;HPM_P1;HPM_P2
2023/08/17 04:49:26;;;;;;;7.80;4.23;;;14.90;99.90;;;;;;1958594;72;26610;-88
2023/08/17 05:05:35;;;;;;;2.90;2.53;;;15.10;99.90;;;;;;1874766;75;27397;-88
2023/08/17 05:21:42;;;;;;;2.07;1.93;;;15.10;99.90;;;;;;1920364;73;27025;-88
2023/08/17 05:24:40;;;;;;;2.33;2.13;;;15.20;99.90;;;;;;1938720;72;25689;-88
2023/08/17 07:30:16;;;;;;;1.50;1.27;;;18.40;99.90;;;;;;1915953;73;26426;-89
2023/08/17 07:35:58;;;;;;;1.00;1.00;;;18.70;99.90;;;;;;1906804;74;27045;-89
2023/08/17 07:54:25;;;;;;;1.00;1.00;;;18.80;99.90;;;;;;1972965;70;27372;-88
2023/08/17 08:22:56;;;;;;;3.40;1.20;;;19.40;99.90;;;;;;1932062;72;27052;-87
2023/08/17 08:52:53;;;;;;;1.50;1.00;;;20.00;99.90;;;;;;1916882;70;27181;-89
2023/08/17 08:59:56;;;;;;;1.00;1.00;;;21.00;99.90;;;;;;1980741;71;26188;-89
2023/08/17 09:02:45;;;;;;;1.33;1.10;;;21.20;99.90;;;;;;1953659;72;25274;-89
2023/08/17 09:08:18;;;;;;;1.10;1.10;;;21.10;99.90;;;;;;1943556;72;27042;-89
2023/08/17 09:11:07;;;;;;;1.23;0.93;;;21.50;99.90;;;;;;1903459;74;25263;-89
2023/08/17 09:13:56;;;;;;;2.87;1.07;;;21.70;99.90;;;;;;1911738;74;25279;-88
2023/08/17 09:16:45;;;;;;;3.60;0.90;;;21.40;99.90;;;;;;1892292;74;25365;-88
2023/08/17 09:19:35;;;;;;;1.40;1.00;;;21.70;99.90;;;;;;1895933;74;25224;-88
2023/08/17 09:22:27;;;;;;;1.17;1.03;;;21.50;99.90;;;;;;1918098;74;25198;-89
2023/08/17 09:25:19;;;;;;;2.80;1.00;;;20.80;99.90;;;;;;1861549;76;25268;-89
2023/08/17 09:28:10;;;;;;;2.77;1.20;;;20.90;99.90;;;;;;1835886;77;25551;-89
2023/08/17 09:31:22;;;;;;;1.90;1.30;;;21.30;99.90;;;;;;1830907;76;25295;-87
2023/08/17 09:34:11;;;;;;;1.10;1.10;;;21.30;99.90;;;;;;1891875;74;25296;-89
2023/08/17 09:37:04;;;;;;;1.10;1.10;;;21.50;99.90;;;;;;1892491;74;25713;-88
2023/08/17 09:39:52;;;;;;;1.00;1.00;;;21.30;99.90;;;;;;1858851;76;25206;-89
2023/08/17 09:42:41;;;;;;;3.40;1.30;;;21.30;99.90;;;;;;1901250;75;25227;-89
2023/08/17 09:45:31;;;;;;;1.33;1.13;;;21.20;99.90;;;;;;1864124;76;25798;-89
2023/08/17 09:48:20;;;;;;;1.10;1.10;;;21.30;99.90;;;;;;1830346;78;25350;-89
2023/08/17 09:54:26;;;;;;;1.33;1.13;;;21.90;99.90;;;;;;1960489;71;27008;-88
2023/08/17 09:57:15;;;;;;;1.00;1.00;;;22.00;99.90;;;;;;1980602;72;25468;-89
2023/08/17 10:02:53;;;;;;;2.20;1.20;;;22.00;99.90;;;;;;1951058;72;27457;-88
2023/08/17 10:09:37;;;;;;;1.80;1.20;;;21.50;99.90;;;;;;1980788;71;26399;-89
2023/08/17 10:15:22;;;;;;;1.00;1.00;;;21.90;99.90;;;;;;1950742;72;27057;-88
2023/08/17 10:18:16;;;;;;;1.20;1.10;;;21.60;99.90;;;;;;1934629;73;25227;-89
2023/08/17 10:23:49;;;;;;;1.93;1.20;;;21.80;99.90;;;;;;1943005;72;27107;-88
2023/08/17 10:26:39;;;;;;;1.30;1.20;;;21.90;99.90;;;;;;1925579;73;25309;-88
2023/08/17 10:29:29;;;;;;;4.40;1.00;;;22.00;99.90;;;;;;1925783;73;25286;-88
2023/08/17 10:32:18;;;;;;;5.27;1.20;;;21.90;99.90;;;;;;1916345;73;25232;-88
2023/08/17 10:35:09;;;;;;;1.53;1.13;;;21.90;99.90;;;;;;1916673;73;25234;-88
2023/08/17 10:37:58;;;;;;;4.30;1.20;;;22.00;99.90;;;;;;1916314;73;25175;-88
2023/08/17 10:40:47;;;;;;;1.23;1.13;;;22.00;99.90;;;;;;1916133;73;25253;-88
2023/08/17 10:43:36;;;;;;;2.13;1.10;;;22.10;99.90;;;;;;1883539;75;25222;-88
2023/08/17 10:46:36;;;;;;;1.63;1.17;;;22.50;99.90;;;;;;1902284;75;25256;-88
2023/08/17 10:49:28;;;;;;;2.57;1.20;;;22.30;99.90;;;;;;1883350;76;25199;-88
2023/08/17 10:52:18;;;;;;;1.30;1.30;;;22.20;99.90;;;;;;1883457;75;25189;-89
2023/08/17 10:55:09;;;;;;;1.70;1.40;;;21.80;99.90;;;;;;1887284;75;25738;-88
2023/08/17 10:57:58;;;;;;;4.23;1.60;;;21.80;99.90;;;;;;1883852;75;25282;-88
2023/08/17 11:03:27;;;;;;;2.23;1.50;;;21.70;99.90;;;;;;1910401;72;27125;-89
2023/08/17 11:06:20;;;;;;;2.87;1.50;;;21.80;99.90;;;;;;1906456;75;25337;-89
2023/08/17 11:09:10;;;;;;;3.33;1.60;;;22.00;99.90;;;;;;1914114;75;25285;-89
2023/08/17 11:12:01;;;;;;;2.13;1.67;;;21.90;99.90;;;;;;1897047;75;25245;-89
2023/08/17 11:14:50;;;;;;;4.77;1.83;;;21.90;99.90;;;;;;1913640;75;25333;-89
2023/08/17 11:17:39;;;;;;;2.43;1.20;;;22.00;99.90;;;;;;1909733;74;25205;-88
2023/08/17 11:20:27;;;;;;;1.20;1.20;;;21.70;99.90;;;;;;1898058;74;25315;-88
2023/08/17 11:23:16;;;;;;;2.90;1.50;;;21.30;99.90;;;;;;1915797;75;25222;-88
2023/08/17 11:26:06;;;;;;;1.90;1.80;;;21.30;99.90;;;;;;1898536;75;25263;-88
2023/08/17 11:28:56;;;;;;;1.93;1.83;;;21.50;99.90;;;;;;1913684;75;25269;-87
2023/08/17 11:31:44;;;;;;;1.73;1.47;;;21.80;99.90;;;;;;1886123;75;25702;-88
2023/08/17 11:34:33;;;;;;;1.30;1.20;;;21.90;99.90;;;;;;1911205;75;25187;-88
2023/08/17 11:37:23;;;;;;;1.57;1.30;;;22.00;99.90;;;;;;1907186;75;25187;-88
2023/08/17 11:40:13;;;;;;;5.60;1.27;;;22.00;99.90;;;;;;1912376;75;25171;-88
2023/08/17 11:43:02;;;;;;;1.40;1.30;;;21.80;99.90;;;;;;1881471;75;25265;-88
2023/08/17 11:45:50;;;;;;;3.13;1.10;;;22.20;99.90;;;;;;1875369;75;25379;-88
2023/08/17 11:48:40;;;;;;;2.50;1.23;;;22.30;99.90;;;;;;1885685;75;25265;-88
2023/08/17 11:51:32;;;;;;;1.60;1.20;;;22.10;99.90;;;;;;1872679;75;25747;-88
2023/08/17 11:57:07;;;;;;;2.43;1.10;;;21.50;99.90;;;;;;1944128;72;27500;-88
2023/08/17 11:59:57;;;;;;;3.03;1.10;;;21.60;99.90;;;;;;1909677;73;25301;-88
2023/08/17 12:02:51;;;;;;;2.30;1.50;;;21.50;99.90;;;;;;1929126;73;25357;-89
2023/08/17 12:05:40;;;;;;;3.33;1.17;;;21.20;99.90;;;;;;1946707;73;25313;-88
2023/08/17 12:08:30;;;;;;;3.17;1.20;;;21.40;99.90;;;;;;1932332;73;25275;-88
2023/08/17 12:11:19;;;;;;;1.37;1.27;;;21.50;99.90;;;;;;1928198;73;25630;-88
2023/08/17 12:14:12;;;;;;;2.60;1.13;;;21.70;99.90;;;;;;1933086;73;25284;-88
2023/08/17 12:17:01;;;;;;;1.30;1.20;;;21.50;99.90;;;;;;1930383;73;25813;-88
2023/08/17 12:19:53;;;;;;;1.73;1.30;;;21.40;99.90;;;;;;1948736;73;25286;-88
2023/08/17 12:22:42;;;;;;;4.53;1.20;;;21.40;99.90;;;;;;1926595;73;25720;-88
2023/08/17 12:25:31;;;;;;;1.53;1.17;;;21.60;99.90;;;;;;1935457;72;25810;-89
2023/08/17 12:28:19;;;;;;;1.50;1.40;;;21.80;99.90;;;;;;1932118;73;25205;-88
2023/08/17 12:48:44;;;;;;;1.50;1.40;;;21.50;99.90;;;;;;1926488;72;27127;-89
2023/08/17 12:51:33;;;;;;;1.40;1.30;;;21.20;99.90;;;;;;1860414;76;25497;-89
2023/08/17 13:08:48;;;;;;;2.17;1.30;;;20.90;99.90;;;;;;1937258;72;26325;-88
2023/08/17 13:14:19;;;;;;;1.77;1.40;;;20.90;99.90;;;;;;1959961;71;27648;-89
2023/08/17 13:20:03;;;;;;;1.83;1.37;;;20.90;99.90;;;;;;1946182;72;27065;-88
2023/08/17 13:22:52;;;;;;;1.93;1.30;;;20.70;99.90;;;;;;1931690;73;25281;-88
2023/08/17 13:25:41;;;;;;;1.50;1.40;;;20.60;99.90;;;;;;1897372;75;25757;-88
2023/08/17 13:31:08;;;;;;;3.90;1.60;;;20.90;99.90;;;;;;1941809;72;26860;-89
2023/08/17 13:33:57;;;;;;;1.70;1.40;;;20.90;99.90;;;;;;1921838;73;25755;-89
2023/08/17 13:39:38;;;;;;;1.97;1.40;;;20.80;99.90;;;;;;2001202;71;26942;-88
2023/08/17 13:45:07;;;;;;;1.63;1.30;;;21.10;99.90;;;;;;1930509;72;27013;-89
2023/08/17 13:47:56;;;;;;;1.60;1.40;;;21.10;99.90;;;;;;1871116;76;25334;-88
2023/08/17 13:50:44;;;;;;;3.43;1.50;;;21.10;99.90;;;;;;1845615;77;25189;-88
2023/08/17 13:53:33;;;;;;;2.87;1.47;;;21.10;99.90;;;;;;1839684;77;25295;-88
2023/08/17 13:56:21;;;;;;;2.87;1.60;;;21.20;99.90;;;;;;1825277;77;25289;-89
2023/08/17 13:59:10;;;;;;;1.63;1.50;;;21.30;99.90;;;;;;1837575;77;25349;-89
2023/08/17 14:02:00;;;;;;;3.03;1.40;;;21.10;99.90;;;;;;1835198;77;25313;-89
2023/08/17 14:04:48;;;;;;;1.37;1.20;;;21.10;99.90;;;;;;1839552;77;25662;-89
2023/08/17 14:07:37;;;;;;;2.77;1.40;;;21.20;99.90;;;;;;1833145;77;25322;-89
2023/08/17 14:10:25;;;;;;;3.03;1.50;;;21.20;99.90;;;;;;1827123;77;25322;-89
2023/08/17 14:13:14;;;;;;;3.07;1.50;;;21.30;99.90;;;;;;1830649;77;25254;-89
2023/08/17 14:16:04;;;;;;;3.00;1.47;;;21.40;99.90;;;;;;1842819;77;25256;-89
2023/08/17 14:21:36;;;;;;;1.50;1.40;;;21.30;99.90;;;;;;1914145;74;27025;-89
2023/08/17 14:24:25;;;;;;;1.77;1.40;;;21.50;99.90;;;;;;1862749;76;25732;-88
2023/08/17 14:27:13;;;;;;;1.87;1.77;;;21.40;99.90;;;;;;1858223;76;25304;-89
2023/08/17 14:30:03;;;;;;;1.97;1.47;;;21.60;99.90;;;;;;1863952;76;25213;-89
2023/08/17 14:35:47;;;;;;;6.73;1.50;;;21.70;99.90;;;;;;1954357;72;26964;-89
2023/08/17 14:38:36;;;;;;;2.77;1.30;;;21.70;99.90;;;;;;1934187;73;25243;-89
2023/08/17 14:41:31;;;;;;;1.93;1.50;;;21.80;99.90;;;;;;1936388;73;25316;-89
2023/08/17 14:44:17;;;;;;;1.40;1.30;;;21.90;99.90;;;;;;1896537;74;25193;-89
2023/08/17 14:47:06;;;;;;;1.63;1.40;;;22.00;99.90;;;;;;1907490;74;25258;-88
2023/08/17 14:49:55;;;;;;;1.50;1.40;;;22.00;99.90;;;;;;1906507;74;25741;-89
2023/08/17 14:52:44;;;;;;;6.70;1.80;;;22.10;99.90;;;;;;1895892;74;25236;-89
2023/08/17 14:55:34;;;;;;;2.33;1.50;;;22.20;99.90;;;;;;1916930;74;25261;-88
2023/08/17 14:58:23;;;;;;;1.93;1.50;;;22.10;99.90;;;;;;1917838;74;25629;-89
2023/08/17 15:03:56;;;;;;;3.00;1.60;;;22.00;99.90;;;;;;1968424;72;27080;-88
2023/08/17 15:09:35;;;;;;;2.00;1.70;;;21.90;99.90;;;;;;1944497;72;26925;-88
2023/08/17 15:12:24;;;;;;;2.70;1.50;;;21.90;99.90;;;;;;1920234;73;25261;-89
2023/08/17 15:15:12;;;;;;;3.63;1.80;;;21.90;99.90;;;;;;1921682;73;25278;-88
2023/08/17 15:18:01;;;;;;;1.30;1.30;;;21.90;99.90;;;;;;1930478;73;25157;-88
2023/08/17 15:20:50;;;;;;;1.73;1.40;;;21.90;99.90;;;;;;1921559;73;25241;-88
2023/08/17 15:23:38;;;;;;;2.90;1.30;;;21.80;99.90;;;;;;1932542;73;25252;-89
2023/08/17 15:26:27;;;;;;;2.23;1.13;;;21.70;99.90;;;;;;1928375;73;25270;-89
2023/08/17 15:29:15;;;;;;;2.00;1.40;;;21.80;99.90;;;;;;1931560;73;25246;-88
2023/08/17 15:32:04;;;;;;;2.80;1.60;;;21.80;99.90;;;;;;1937969;73;25195;-89
2023/08/17 15:34:52;;;;;;;1.23;1.20;;;22.00;99.90;;;;;;1935491;73;25175;-89
2023/08/17 15:37:41;;;;;;;8.17;1.27;;;22.00;99.90;;;;;;1944446;73;25218;-89
2023/08/17 15:40:29;;;;;;;2.20;1.10;;;22.10;99.90;;;;;;1944018;73;25385;-88
2023/08/17 15:46:05;;;;;;;2.17;1.30;;;22.00;99.90;;;;;;1960357;72;27587;-88
2023/08/17 15:51:46;;;;;;;3.80;1.10;;;22.00;99.90;;;;;;1952013;72;27405;-89
2023/08/17 15:54:34;;;;;;;0.90;0.90;;;22.00;99.90;;;;;;1935082;73;26371;-88
2023/08/17 15:57:22;;;;;;;1.10;1.03;;;22.00;99.90;;;;;;1914761;73;25241;-89
2023/08/17 16:00:13;;;;;;;1.57;1.10;;;22.00;99.90;;;;;;1941952;73;25180;-89
2023/08/17 16:03:02;;;;;;;2.03;1.13;;;21.90;99.90;;;;;;1953418;72;25312;-89
2023/08/17 16:05:51;;;;;;;1.77;1.30;;;21.90;99.90;;;;;;1945957;72;25301;-89
2023/08/17 16:08:40;;;;;;;2.07;1.20;;;21.90;99.90;;;;;;1938744;73;25302;-89
2023/08/17 16:11:28;;;;;;;1.87;1.20;;;22.00;99.90;;;;;;1949008;72;25181;-88
2023/08/17 16:14:17;;;;;;;1.87;1.20;;;22.00;99.90;;;;;;1946736;72;25716;-89
2023/08/17 16:17:06;;;;;;;1.60;1.20;;;22.00;99.90;;;;;;1940779;73;25846;-88
2023/08/17 16:19:55;;;;;;;2.17;1.40;;;21.90;99.90;;;;;;1933638;73;25244;-88
2023/08/17 16:22:43;;;;;;;3.20;1.17;;;22.00;99.90;;;;;;1946015;72;25208;-88
2023/08/17 16:28:13;;;;;;;2.70;1.00;;;22.00;99.90;;;;;;1951716;72;27560;-89
2023/08/17 16:31:02;;;;;;;1.20;1.10;;;21.90;99.90;;;;;;1926714;73;25229;-89
2023/08/17 16:33:50;;;;;;;1.20;1.10;;;21.90;99.90;;;;;;1917479;73;25338;-89
2023/08/17 16:36:39;;;;;;;1.37;1.20;;;21.90;99.90;;;;;;1926448;73;25181;-89
2023/08/17 16:39:28;;;;;;;3.70;1.73;;;21.80;99.90;;;;;;1916445;75;25686;-89
2023/08/17 16:42:18;;;;;;;2.77;1.80;;;21.90;99.90;;;;;;1901864;73;25934;-89
2023/08/17 16:45:07;;;;;;;2.93;2.03;;;21.90;99.90;;;;;;1903755;74;25663;-89
2023/08/17 16:47:56;;;;;;;1.30;1.20;;;21.80;99.90;;;;;;1911090;74;25232;-89
2023/08/17 16:50:45;;;;;;;6.23;2.60;;;21.70;99.90;;;;;;1910010;75;25653;-89
2023/08/17 16:53:33;;;;;;;2.20;1.47;;;21.70;99.90;;;;;;1916066;75;25306;-88
2023/08/17 16:56:21;;;;;;;3.57;1.00;;;21.70;99.90;;;;;;1915541;75;25757;-88
2023/08/17 16:59:10;;;;;;;1.00;1.00;;;21.70;99.90;;;;;;1901332;75;25614;-89
2023/08/17 17:02:00;;;;;;;1.80;1.20;;;21.90;99.90;;;;;;1909085;75;25192;-88
2023/08/17 17:04:49;;;;;;;3.33;1.10;;;21.90;99.90;;;;;;1909079;74;25249;-88
2023/08/17 17:10:20;;;;;;;2.67;1.23;;;21.90;99.90;;;;;;1941624;72;27049;-89
2023/08/17 17:15:48;;;;;;;1.73;1.20;;;21.80;99.90;;;;;;1970077;71;26992;-88
2023/08/17 17:18:38;;;;;;;4.37;1.30;;;21.80;99.90;;;;;;1901551;75;25191;-88
2023/08/17 17:21:26;;;;;;;1.30;1.20;;;21.50;99.90;;;;;;1889514;74;25218;-88
2023/08/17 17:24:14;;;;;;;7.40;1.30;;;21.40;99.90;;;;;;1895146;75;25302;-89
2023/08/17 17:27:03;;;;;;;5.37;1.50;;;21.30;99.90;;;;;;1894024;74;25237;-88
2023/08/17 17:29:51;;;;;;;12.80;7.47;;;21.50;99.90;;;;;;1891693;75;25247;-88
2023/08/17 17:35:22;;;;;;;3.03;1.40;;;21.80;99.90;;;;;;1934998;72;27091;-89
2023/08/17 17:38:10;;;;;;;1.93;1.37;;;21.70;99.90;;;;;;1899088;75;25218;-88
2023/08/17 17:40:59;;;;;;;1.40;1.30;;;21.80;99.90;;;;;;1905471;75;25225;-89
2023/08/17 17:43:48;;;;;;;1.20;1.10;;;21.80;99.90;;;;;;1888100;75;26618;-88
2023/08/17 17:46:37;;;;;;;1.73;1.20;;;21.90;99.90;;;;;;1891695;75;25236;-89
2023/08/17 17:52:46;;;;;;;1.40;1.30;;;21.70;99.90;;;;;;1995336;71;27586;-89
2023/08/17 17:58:17;;;;;;;1.60;1.40;;;21.30;99.90;;;;;;1930186;72;27060;-89
2023/08/17 18:01:05;;;;;;;1.70;1.30;;;21.10;99.90;;;;;;1899165;75;25604;-88
2023/08/17 18:03:54;;;;;;;4.27;1.60;;;20.90;99.90;;;;;;1883570;75;25243;-89
2023/08/17 18:06:43;;;;;;;1.50;1.40;;;20.80;99.90;;;;;;1885238;75;25192;-88
2023/08/17 18:09:35;;;;;;;2.43;1.50;;;20.80;99.90;;;;;;1883642;75;25284;-89
2023/08/17 18:12:26;;;;;;;1.67;1.57;;;20.90;99.90;;;;;;1897652;75;26026;-89
2023/08/17 18:15:15;;;;;;;5.43;1.60;;;20.90;99.90;;;;;;1899027;75;25220;-89
2023/08/17 18:18:06;;;;;;;2.50;1.40;;;21.00;99.90;;;;;;1914445;75;25256;-89
2023/08/17 18:20:54;;;;;;;3.53;1.30;;;20.90;99.90;;;;;;1896767;75;25800;-89
2023/08/17 18:23:43;;;;;;;3.47;1.50;;;20.90;99.90;;;;;;1883886;75;25255;-88
2023/08/17 18:26:32;;;;;;;2.07;1.50;;;20.70;99.90;;;;;;1890283;75;25310;-88
2023/08/17 18:29:20;;;;;;;1.97;1.40;;;20.60;99.90;;;;;;1899766;75;25775;-89
2023/08/17 18:32:10;;;;;;;1.60;1.50;;;20.50;99.90;;;;;;1871561;76;25258;-88
2023/08/17 18:37:43;;;;;;;2.03;1.70;;;20.30;99.90;;;;;;1932117;72;27065;-89
2023/08/17 18:43:24;;;;;;;2.63;1.57;;;20.20;99.90;;;;;;1985893;71;28255;-90
2023/08/17 18:49:03;;;;;;;2.33;1.50;;;20.00;99.90;;;;;;1949342;72;26983;-88
2023/08/17 18:51:51;;;;;;;4.47;1.80;;;19.80;99.90;;;;;;1914543;73;25290;-88
2023/08/17 18:54:40;;;;;;;2.47;1.60;;;19.60;99.90;;;;;;1915358;75;25852;-89
2023/08/17 18:57:29;;;;;;;4.63;1.80;;;19.50;99.90;;;;;;1941759;73;25232;-89
2023/08/17 19:00:18;;;;;;;3.13;1.90;;;19.50;99.90;;;;;;1921932;73;25246;-88
2023/08/17 19:03:07;;;;;;;3.53;1.70;;;19.40;99.90;;;;;;1925487;73;25215;-89
2023/08/17 19:05:56;;;;;;;2.57;1.73;;;19.30;99.90;;;;;;1943968;73;25156;-88
2023/08/17 19:08:45;;;;;;;3.23;2.10;;;19.20;99.90;;;;;;1930072;73;25260;-88
2023/08/17 19:11:36;;;;;;;2.33;1.97;;;19.10;99.90;;;;;;1923437;73;25757;-88
2023/08/17 19:14:24;;;;;;;5.00;2.00;;;19.00;99.90;;;;;;1926788;72;25216;-88
2023/08/17 19:21:26;;;;;;;6.37;2.77;;;18.90;99.90;;;;;;1978092;71;26442;-88
2023/08/17 19:24:15;;;;;;;4.27;2.50;;;18.70;99.90;;;;;;1957894;72;25888;-88
2023/08/17 19:27:06;;;;;;;4.03;2.30;;;18.60;99.90;;;;;;2021639;71;25219;-88
2023/08/17 19:29:55;;;;;;;4.03;2.10;;;18.50;99.90;;;;;;2037769;69;25251;-88
2023/08/17 19:35:30;;;;;;;6.37;2.40;;;18.40;99.90;;;;;;1907056;74;27569;-89
2023/08/17 19:38:19;;;;;;;5.87;2.70;;;18.40;99.90;;;;;;1856158;76;25292;-89
2023/08/17 19:44:27;;;;;;;4.80;2.27;;;18.30;99.90;;;;;;2009479;71;26959;-89
2023/08/17 19:47:17;;;;;;;2.23;1.93;;;18.20;99.90;;;;;;1957901;72;25250;-89
2023/08/17 19:50:09;;;;;;;5.33;2.00;;;18.20;99.90;;;;;;2040567;69;25314;-89
2023/08/17 19:52:58;;;;;;;2.37;1.90;;;18.10;99.90;;;;;;2044557;69;25127;-89
2023/08/17 20:00:00;;;;;;;2.93;2.30;;;17.90;99.90;;;;;;1998769;70;26334;-89
2023/08/17 20:02:48;;;;;;;3.23;2.30;;;17.90;99.90;;;;;;1988415;71;25667;-89
2023/08/17 20:05:37;;;;;;;2.80;2.10;;;17.80;99.90;;;;;;1976332;71;25298;-89
2023/08/17 20:08:27;;;;;;;2.30;2.10;;;17.80;99.90;;;;;;1992421;71;25266;-89
2023/08/17 20:11:16;;;;;;;4.50;2.10;;;17.70;99.90;;;;;;1998946;71;25743;-89
2023/08/17 20:17:55;;;;;;;2.50;2.17;;;17.60;99.90;;;;;;1979420;71;26673;-88
2023/08/17 20:20:51;;;;;;;5.00;2.17;;;17.40;99.90;;;;;;1999140;70;25218;-86
2023/08/17 20:23:43;;;;;;;7.03;2.20;;;17.40;99.90;;;;;;2016672;70;25200;-88
2023/08/17 20:26:30;;;;;;;6.10;2.07;;;17.40;99.90;;;;;;2020953;70;25258;-89
2023/08/17 20:29:19;;;;;;;2.93;2.20;;;17.20;99.90;;;;;;2030574;70;25202;-88
2023/08/17 20:32:08;;;;;;;4.87;2.03;;;17.20;99.90;;;;;;2029683;70;25195;-89
2023/08/17 20:37:39;;;;;;;3.63;2.20;;;17.00;99.90;;;;;;1960435;70;27413;-89
2023/08/17 20:40:27;;;;;;;4.07;2.13;;;17.00;99.90;;;;;;1947307;73;25923;-89
2023/08/17 20:43:16;;;;;;;2.70;2.20;;;16.90;99.90;;;;;;1910809;75;25687;-89
2023/08/17 20:46:05;;;;;;;3.00;1.90;;;16.80;99.90;;;;;;1912483;75;25275;-88
2023/08/17 20:48:56;;;;;;;4.77;1.60;;;16.80;99.90;;;;;;1907588;75;25295;-88
2023/08/17 20:51:45;;;;;;;2.63;1.30;;;16.80;99.90;;;;;;1911265;75;25309;-88
2023/08/17 20:54:33;;;;;;;2.27;1.50;;;16.90;99.90;;;;;;1908079;75;25212;-88
2023/08/17 20:57:22;;;;;;;2.40;1.73;;;17.00;99.90;;;;;;1907095;75;25242;-88
2023/08/17 21:00:13;;;;;;;4.67;1.50;;;16.90;99.90;;;;;;1918984;75;25832;-88
2023/08/17 21:03:02;;;;;;;2.47;1.50;;;17.00;99.90;;;;;;1908797;75;25478;-89
2023/08/17 21:31:58;;;;;;;5.40;1.40;;;16.90;99.90;;;;;;1906078;75;26351;-89
2023/08/17 21:37:42;;;;;;;1.77;1.20;;;16.30;99.90;;;;;;1946207;72;26878;-88
2023/08/17 21:40:31;;;;;;;3.83;1.40;;;16.20;99.90;;;;;;1920366;73;25798;-89
2023/08/17 21:43:19;;;;;;;4.20;1.43;;;16.10;99.90;;;;;;1881300;75;25296;-89
2023/08/17 21:46:08;;;;;;;6.70;1.50;;;16.10;99.90;;;;;;1883218;75;25736;-88
2023/08/17 21:48:58;;;;;;;3.67;2.00;;;16.00;99.90;;;;;;1842589;76;25271;-88
2023/08/17 21:51:48;;;;;;;5.27;1.27;;;16.00;99.90;;;;;;1873421;76;25630;-88
2023/08/17 21:54:38;;;;;;;1.60;1.50;;;15.90;99.90;;;;;;1870765;76;25760;-89
2023/08/17 21:57:27;;;;;;;2.13;1.40;;;15.90;99.90;;;;;;1865265;75;25221;-89
2023/08/17 22:00:16;;;;;;;5.27;1.40;;;15.80;99.90;;;;;;1852866;76;25751;-89
2023/08/17 22:03:05;;;;;;;5.23;1.50;;;15.70;99.90;;;;;;1873814;75;25286;-88
2023/08/17 22:05:53;;;;;;;3.27;1.40;;;15.60;99.90;;;;;;1867507;76;25664;-89
2023/08/17 22:08:42;;;;;;;1.97;1.50;;;15.60;99.90;;;;;;1824158;77;25814;-89
2023/08/17 22:11:31;;;;;;;2.93;1.50;;;15.50;99.90;;;;;;1860706;75;25233;-88
2023/08/17 22:14:19;;;;;;;2.00;1.47;;;15.40;99.90;;;;;;1870028;76;25167;-88
2023/08/17 22:19:54;;;;;;;1.63;1.40;;;15.30;99.90;;;;;;1966898;72;26848;-88
2023/08/17 22:22:42;;;;;;;3.03;1.60;;;15.20;99.90;;;;;;1928966;73;25308;-89
2023/08/17 22:25:31;;;;;;;3.70;1.40;;;15.20;99.90;;;;;;1915563;73;26634;-88
2023/08/17 22:28:20;;;;;;;1.50;1.40;;;15.20;99.90;;;;;;1944505;73;25162;-88
2023/08/17 22:31:09;;;;;;;1.67;1.40;;;15.10;99.90;;;;;;1944656;73;25211;-89
2023/08/17 22:33:58;;;;;;;1.83;1.50;;;15.10;99.90;;;;;;1899264;75;25241;-89
2023/08/17 22:36:46;;;;;;;4.10;1.40;;;15.10;99.90;;;;;;1901131;75;25754;-88
2023/08/17 22:39:35;;;;;;;2.07;1.43;;;15.00;99.90;;;;;;1874786;75;25238;-89
2023/08/17 22:42:24;;;;;;;2.17;1.37;;;14.90;99.90;;;;;;1873900;75;25210;-88
2023/08/17 22:45:13;;;;;;;1.87;1.50;;;14.90;99.90;;;;;;1889893;75;25694;-89
2023/08/17 22:48:01;;;;;;;1.50;1.40;;;15.00;99.90;;;;;;1890409;75;25197;-89
2023/08/17 22:50:50;;;;;;;4.00;1.50;;;14.90;99.90;;;;;;1887549;75;25217;-89
2023/08/17 22:53:39;;;;;;;1.30;1.30;;;14.90;99.90;;;;;;1886632;75;25212;-89
2023/08/17 22:56:27;;;;;;;1.97;1.20;;;14.80;99.90;;;;;;1892204;75;25585;-88
2023/08/17 23:01:58;;;;;;;4.00;1.50;;;14.80;99.90;;;;;;1902034;74;27075;-89
2023/08/17 23:04:46;;;;;;;2.13;1.20;;;14.90;99.90;;;;;;1891714;75;25242;-89
2023/08/17 23:07:35;;;;;;;2.50;1.50;;;14.90;99.90;;;;;;1879542;76;25231;-89
2023/08/17 23:10:24;;;;;;;1.00;1.00;;;15.00;99.90;;;;;;1879259;75;25192;-89
2023/08/17 23:13:13;;;;;;;2.40;1.20;;;15.20;99.90;;;;;;1895004;75;25707;-89
2023/08/17 23:16:01;;;;;;;1.27;1.10;;;15.30;99.90;;;;;;1884292;75;25161;-89
2023/08/17 23:18:50;;;;;;;1.13;1.13;;;15.40;99.90;;;;;;1886365;75;25228;-89
2023/08/17 23:21:39;;;;;;;1.43;1.20;;;15.40;99.90;;;;;;1895237;75;25273;-89
2023/08/17 23:24:28;;;;;;;4.53;1.00;;;15.30;99.90;;;;;;1893157;75;25248;-89
2023/08/17 23:27:17;;;;;;;2.70;1.20;;;15.30;99.90;;;;;;1887217;75;25189;-89
2023/08/17 23:30:10;;;;;;;5.37;1.47;;;15.20;99.90;;;;;;1885634;75;25702;-89
2023/08/17 23:32:59;;;;;;;3.13;1.30;;;15.10;99.90;;;;;;1880010;75;25245;-89
2023/08/17 23:35:48;;;;;;;1.97;1.40;;;15.10;99.90;;;;;;1884150;75;25233;-89
2023/08/17 23:38:36;;;;;;;4.00;1.20;;;15.00;99.90;;;;;;1880519;75;25259;-89
2023/08/17 23:44:17;;;;;;;1.20;1.20;;;14.90;99.90;;;;;;1943659;72;27012;-89
2023/08/17 23:49:47;;;;;;;1.77;1.40;;;14.90;99.90;;;;;;1952584;72;26984;-89
2023/08/17 23:52:38;;;;;;;3.83;1.40;;;15.00;99.90;;;;;;1923772;72;25276;-89
2023/08/17 23:55:26;;;;;;;1.33;1.23;;;15.10;99.90;;;;;;1937473;73;25702;-89
2023/08/17 23:58:16;;;;;;;5.27;1.40;;;15.10;99.90;;;;;;1916626;72;25552;-89
